createdAt,value
2024-01-20T00:02:20.878Z,42.19
2024-01-20T00:04:54.429Z,42.11
2024-01-20T00:07:28.139Z,41.49
2024-01-20T00:10:01.488Z,41.88
2024-01-20T00:12:36.192Z,41.77
2024-01-20T00:15:12.500Z,41.99
2024-01-20T00:17:46.718Z,41.76
2024-01-20T00:20:20.865Z,41.80
2024-01-20T00:22:54.497Z,41.79
2024-01-20T00:25:27.892Z,41.91
2024-01-20T00:28:01.923Z,41.91
2024-01-20T00:30:35.665Z,41.94
2024-01-20T00:33:09.869Z,41.80
2024-01-20T00:35:45.773Z,41.92
2024-01-20T00:38:19.335Z,41.86
2024-01-20T00:40:52.819Z,41.81
2024-01-20T00:43:26.257Z,41.76
2024-01-20T00:45:59.570Z,41.56
2024-01-20T00:48:32.976Z,41.65
2024-01-20T00:51:06.901Z,41.37
2024-01-20T00:53:40.321Z,41.30
2024-01-20T00:56:13.731Z,41.39
2024-01-20T00:58:47.149Z,41.29
2024-01-20T01:01:20.610Z,41.63
2024-01-20T01:03:54.450Z,41.64
2024-01-20T01:06:27.858Z,41.47
2024-01-20T01:09:01.167Z,41.71
2024-01-20T01:11:34.589Z,41.72
2024-01-20T01:14:08.004Z,41.54
2024-01-20T01:16:41.562Z,41.36
2024-01-20T01:19:16.802Z,41.43
2024-01-20T01:21:50.124Z,41.25
2024-01-20T01:24:23.428Z,41.10
2024-01-20T01:26:56.787Z,40.96
2024-01-20T01:29:30.203Z,40.93
2024-01-20T01:32:03.773Z,40.91
2024-01-20T01:34:37.141Z,40.78
2024-01-20T01:37:10.686Z,40.80
2024-01-20T01:39:44.149Z,40.69
2024-01-20T01:42:17.482Z,40.80
2024-01-20T01:44:50.771Z,40.64
2024-01-20T01:47:25.087Z,40.68
2024-01-20T01:49:58.741Z,40.85
2024-01-20T01:52:33.328Z,40.98
2024-01-20T01:55:07.733Z,40.77
2024-01-20T01:57:43.412Z,40.95
2024-01-20T02:00:17.277Z,40.97
2024-01-20T02:02:50.723Z,40.97
2024-01-20T02:05:24.337Z,41.20
2024-01-20T02:07:59.464Z,40.98
2024-01-20T02:10:33.776Z,40.87
2024-01-20T02:13:07.993Z,40.91
2024-01-20T02:15:42.689Z,40.96
2024-01-20T02:18:16.328Z,41.05
2024-01-20T02:20:49.762Z,40.84
2024-01-20T02:23:23.189Z,40.86
2024-01-20T02:25:56.666Z,40.95
2024-01-20T02:28:29.997Z,40.92
2024-01-20T02:31:03.283Z,40.97
2024-01-20T02:33:36.617Z,41.01
2024-01-20T02:36:10.681Z,40.89
2024-01-20T02:38:43.997Z,40.84
2024-01-20T02:41:17.374Z,40.73
2024-01-20T02:43:50.744Z,40.89
2024-01-20T02:46:24.002Z,40.60
2024-01-20T02:48:57.516Z,40.73
2024-01-20T02:51:30.950Z,40.56
2024-01-20T02:54:04.527Z,40.18
2024-01-20T02:56:37.851Z,40.22
2024-01-20T02:59:11.209Z,40.01
2024-01-20T03:01:44.496Z,40.04
2024-01-20T03:04:17.995Z,40.13
2024-01-20T03:06:51.423Z,40.08
2024-01-20T03:09:24.911Z,40.20
2024-01-20T03:11:58.336Z,39.80
2024-01-20T03:14:31.680Z,40.11
2024-01-20T03:17:05.146Z,39.96
2024-01-20T03:19:38.548Z,40.08
2024-01-20T03:22:11.905Z,40.03
2024-01-20T03:24:45.259Z,39.99
2024-01-20T03:27:20.700Z,40.01
2024-01-20T03:29:54.130Z,40.17
2024-01-20T03:32:27.456Z,40.27
2024-01-20T03:35:00.960Z,40.17
2024-01-20T03:37:34.266Z,40.32
2024-01-20T03:40:09.853Z,40.41
2024-01-20T03:42:43.192Z,40.42
2024-01-20T03:45:16.742Z,40.40
2024-01-20T03:47:50.151Z,40.31
2024-01-20T03:50:23.811Z,40.38
2024-01-20T03:52:57.165Z,40.80
2024-01-20T03:55:30.440Z,40.53
2024-01-20T03:58:03.823Z,40.57
2024-01-20T04:00:37.509Z,40.47
2024-01-20T04:03:10.900Z,40.70
2024-01-20T04:05:44.362Z,40.65
2024-01-20T04:08:17.790Z,40.60
2024-01-20T04:10:51.697Z,40.40
2024-01-20T04:13:24.997Z,40.41
2024-01-20T04:15:58.568Z,40.65
2024-01-20T04:18:32.002Z,40.47
2024-01-20T04:21:07.172Z,39.96
2024-01-20T04:23:40.575Z,39.65
2024-01-20T04:26:13.969Z,39.49
2024-01-20T04:28:47.300Z,39.56
2024-01-20T04:31:20.757Z,39.71
2024-01-20T04:33:54.762Z,39.50
2024-01-20T04:36:28.415Z,39.41
2024-01-20T04:39:01.870Z,39.49
2024-01-20T04:41:35.194Z,39.34
2024-01-20T04:44:08.816Z,39.26
2024-01-20T04:46:42.130Z,39.31
2024-01-20T04:49:15.752Z,39.33
2024-01-20T04:51:49.247Z,39.31
2024-01-20T04:54:22.683Z,39.30
2024-01-20T04:56:56.139Z,39.65
2024-01-20T04:59:29.482Z,39.85
2024-01-20T05:02:02.780Z,39.73
2024-01-20T05:04:36.257Z,40.01
2024-01-20T05:07:10.256Z,40.09
2024-01-20T05:09:43.847Z,40.34
2024-01-20T05:12:17.277Z,40.08
2024-01-20T05:14:50.640Z,40.35
2024-01-20T05:17:24.087Z,40.47
2024-01-20T05:19:57.634Z,40.20
2024-01-20T05:22:31.057Z,39.94
2024-01-20T05:25:04.855Z,40.29
2024-01-20T05:27:38.428Z,40.48
2024-01-20T05:30:14.112Z,40.26
2024-01-20T05:32:49.140Z,40.44
2024-01-20T05:35:24.090Z,40.48
2024-01-20T05:37:57.363Z,40.61
2024-01-20T05:40:30.657Z,40.82
2024-01-20T05:43:05.359Z,40.57
2024-01-20T05:45:38.781Z,40.81
2024-01-20T05:48:12.367Z,40.31
2024-01-20T05:50:46.887Z,39.99
2024-01-20T05:53:21.348Z,39.76
2024-01-20T05:55:54.750Z,40.11
2024-01-20T05:58:28.069Z,39.94
2024-01-20T06:01:01.396Z,39.74
2024-01-20T06:03:34.899Z,39.75
2024-01-20T06:06:10.264Z,40.05
2024-01-20T06:08:44.927Z,39.90
2024-01-20T06:11:18.427Z,39.83
2024-01-20T06:13:51.818Z,40.22
2024-01-20T06:16:25.111Z,40.19
2024-01-20T06:18:58.546Z,40.05
2024-01-20T06:21:31.994Z,40.13
2024-01-20T06:24:05.710Z,40.29
2024-01-20T06:26:39.007Z,40.48
2024-01-20T06:29:12.846Z,40.51
2024-01-20T06:31:46.405Z,40.38
2024-01-20T06:34:19.800Z,40.57
2024-01-20T06:36:53.431Z,40.67
2024-01-20T06:39:27.297Z,40.62
2024-01-20T06:42:00.708Z,40.30
2024-01-20T06:44:34.144Z,40.84
2024-01-20T06:47:08.335Z,40.71
2024-01-20T06:49:44.539Z,40.75
2024-01-20T06:52:17.993Z,40.77
2024-01-20T06:54:52.140Z,40.96
2024-01-20T06:57:25.504Z,41.17
2024-01-20T06:59:58.887Z,41.06
2024-01-20T07:02:34.528Z,41.19
2024-01-20T07:05:10.876Z,40.96
2024-01-20T07:07:44.631Z,41.06
2024-01-20T07:10:19.396Z,41.08
2024-01-20T07:12:52.710Z,41.01
2024-01-20T07:15:26.087Z,41.06
2024-01-20T07:18:00.742Z,41.04
2024-01-20T07:20:34.221Z,40.82
2024-01-20T07:23:08.244Z,41.03
2024-01-20T07:25:41.639Z,41.02
2024-01-20T07:28:15.275Z,41.22
2024-01-20T07:30:48.657Z,41.17
2024-01-20T07:33:22.134Z,41.21
2024-01-20T07:35:55.514Z,41.09
2024-01-20T07:38:28.991Z,41.10
2024-01-20T07:41:03.409Z,41.06
2024-01-20T07:43:36.875Z,41.09
2024-01-20T07:46:11.612Z,41.03
2024-01-20T07:48:45.195Z,41.07
2024-01-20T07:51:18.614Z,41.00
2024-01-20T07:53:51.957Z,41.06
2024-01-20T07:56:25.319Z,41.04
2024-01-20T07:58:59.017Z,41.05
2024-01-20T08:01:32.477Z,41.10
2024-01-20T08:04:06.570Z,41.19
2024-01-20T08:06:41.748Z,41.08
2024-01-20T08:09:16.167Z,41.03
2024-01-20T08:11:49.512Z,41.13
2024-01-20T08:14:22.808Z,41.19
2024-01-20T08:16:56.154Z,41.13
2024-01-20T08:19:29.633Z,41.09
2024-01-20T08:22:03.061Z,41.09
2024-01-20T08:24:36.485Z,41.07
2024-01-20T08:27:09.963Z,41.06
2024-01-20T08:29:43.349Z,41.08
2024-01-20T08:32:16.657Z,41.12
2024-01-20T08:34:50.159Z,41.17
2024-01-20T08:37:23.520Z,41.11
2024-01-20T08:39:56.844Z,41.02
2024-01-20T08:42:30.404Z,40.98
2024-01-20T08:45:04.402Z,40.99
2024-01-20T08:47:38.345Z,40.83
2024-01-20T08:50:13.112Z,41.04
2024-01-20T08:52:46.392Z,41.07
2024-01-20T08:55:19.940Z,41.10
2024-01-20T08:57:53.626Z,40.99
2024-01-20T09:00:26.951Z,40.91
2024-01-20T09:03:00.553Z,40.90
2024-01-20T09:05:38.215Z,40.98
2024-01-20T09:08:12.865Z,41.01
2024-01-20T09:10:46.406Z,41.03
2024-01-20T09:13:20.170Z,41.12
2024-01-20T09:15:53.809Z,41.18
2024-01-20T09:18:27.365Z,41.14
2024-01-20T09:21:00.917Z,41.15
2024-01-20T09:23:34.249Z,41.27
2024-01-20T09:26:07.763Z,41.11
2024-01-20T09:28:41.184Z,41.25
2024-01-20T09:31:15.071Z,41.32
2024-01-20T09:33:48.564Z,41.33
2024-01-20T09:36:22.172Z,41.37
2024-01-20T09:38:55.559Z,41.28
2024-01-20T09:41:30.375Z,41.43
2024-01-20T09:44:03.934Z,40.78
2024-01-20T09:46:38.238Z,40.73
2024-01-20T09:49:11.802Z,40.31
2024-01-20T09:51:53.919Z,40.61
2024-01-20T09:54:28.754Z,39.77
2024-01-20T09:57:02.411Z,40.88
2024-01-20T09:59:36.239Z,40.94
2024-01-20T10:02:12.634Z,41.09
2024-01-20T10:04:49.305Z,41.23
2024-01-20T10:07:33.131Z,41.80
2024-01-20T10:10:07.459Z,41.90
2024-01-20T10:12:41.009Z,41.65
2024-01-20T10:15:14.735Z,41.86
2024-01-20T10:17:48.571Z,41.67
2024-01-20T10:20:27.243Z,41.52
2024-01-20T10:23:04.819Z,41.24
2024-01-20T10:25:38.358Z,40.99
2024-01-20T10:28:13.107Z,40.19
2024-01-20T10:30:46.740Z,41.52
2024-01-20T10:33:20.281Z,40.53
2024-01-20T10:35:54.190Z,41.35
2024-01-20T10:38:30.298Z,41.27
2024-01-20T10:41:05.006Z,40.84
2024-01-20T10:43:49.368Z,40.90
2024-01-20T10:46:28.646Z,40.73
2024-01-20T10:49:06.560Z,40.76
2024-01-20T10:51:40.607Z,40.74
2024-01-20T10:54:15.170Z,40.23
2024-01-20T10:56:48.656Z,40.83
2024-01-20T10:59:25.857Z,40.89
2024-01-20T11:01:59.764Z,40.70
2024-01-20T11:04:41.647Z,40.86
2024-01-20T11:07:15.518Z,40.86
2024-01-20T11:09:59.582Z,40.83
2024-01-20T11:12:33.274Z,40.60
2024-01-20T11:15:12.835Z,40.61
2024-01-20T11:17:46.226Z,40.47
2024-01-20T11:20:20.285Z,40.64
2024-01-20T11:22:54.627Z,40.57
2024-01-20T11:25:35.089Z,40.77
2024-01-20T11:28:08.817Z,40.68
2024-01-20T11:30:42.481Z,40.37
2024-01-20T11:33:16.831Z,40.53
2024-01-20T11:35:53.263Z,40.41
2024-01-20T11:38:26.928Z,40.23
2024-01-20T11:41:04.605Z,40.32
2024-01-20T11:43:38.298Z,40.10
2024-01-20T11:46:12.357Z,40.04
2024-01-20T11:48:48.397Z,40.02
2024-01-20T11:51:23.337Z,39.91
2024-01-20T11:53:56.797Z,40.00
2024-01-20T11:56:30.127Z,40.18
2024-01-20T11:59:03.507Z,40.22
2024-01-20T12:01:38.310Z,40.04
2024-01-20T12:04:11.760Z,40.16
2024-01-20T12:06:45.223Z,40.19
2024-01-20T12:09:19.425Z,40.13
2024-01-20T12:11:52.992Z,40.39
2024-01-20T12:14:28.020Z,40.23
2024-01-20T12:17:01.520Z,40.22
2024-01-20T12:19:35.021Z,40.29
2024-01-20T12:22:09.200Z,40.34
2024-01-20T12:24:48.707Z,40.15
2024-01-20T12:27:22.065Z,40.24
2024-01-20T12:29:55.797Z,40.15
2024-01-20T12:32:29.238Z,40.31
2024-01-20T12:35:02.641Z,40.29
2024-01-20T12:37:35.956Z,40.19
2024-01-20T12:40:11.581Z,40.09
2024-01-20T12:42:45.031Z,40.19
2024-01-20T12:45:18.465Z,40.33
2024-01-20T12:47:51.897Z,40.40
2024-01-20T12:50:25.279Z,40.35
2024-01-20T12:52:58.677Z,40.25
2024-01-20T12:55:32.165Z,40.63
2024-01-20T12:58:05.694Z,40.62
2024-01-20T13:00:39.089Z,40.78
2024-01-20T13:03:12.617Z,41.18
2024-01-20T13:05:46.545Z,41.16
2024-01-20T13:08:20.491Z,42.20
2024-01-20T13:10:53.996Z,42.69
2024-01-20T13:13:29.557Z,42.68
2024-01-20T13:16:03.407Z,41.08
2024-01-20T13:18:37.022Z,42.70
2024-01-20T13:21:11.612Z,43.36
2024-01-20T13:23:47.073Z,41.83
2024-01-20T13:26:20.673Z,43.75
2024-01-20T13:28:54.763Z,44.21
2024-01-20T13:31:28.168Z,44.77
2024-01-20T13:34:01.839Z,44.25
2024-01-20T13:36:35.252Z,42.91
2024-01-20T13:39:09.343Z,43.41
2024-01-20T13:41:43.345Z,44.67
2024-01-20T13:44:16.658Z,47.79
2024-01-20T13:46:50.001Z,49.07
2024-01-20T13:49:23.483Z,48.94
2024-01-20T13:51:56.881Z,48.53
2024-01-20T13:54:30.189Z,46.17
2024-01-20T13:57:03.980Z,47.57
2024-01-20T13:59:38.241Z,47.52
2024-01-20T14:02:11.653Z,45.67
2024-01-20T14:04:46.870Z,46.49
2024-01-20T14:07:20.332Z,47.39
2024-01-20T14:09:53.723Z,46.80
2024-01-20T14:12:27.111Z,46.47
2024-01-20T14:15:00.548Z,46.62
2024-01-20T14:17:34.008Z,46.60
2024-01-20T14:20:10.181Z,46.21
2024-01-20T14:22:43.481Z,45.88
2024-01-20T14:25:17.973Z,45.43
2024-01-20T14:27:51.647Z,45.04
2024-01-20T14:30:25.054Z,44.46
2024-01-20T14:32:58.418Z,44.70
2024-01-20T14:35:31.761Z,44.31
2024-01-20T14:38:05.343Z,44.45
2024-01-20T14:40:38.767Z,43.97
2024-01-20T14:43:12.241Z,44.27
2024-01-20T14:45:46.006Z,44.20
2024-01-20T14:48:19.565Z,44.00
2024-01-20T14:50:52.946Z,43.69
2024-01-20T14:53:26.264Z,43.65
2024-01-20T14:55:59.614Z,43.70
2024-01-20T14:58:33.188Z,43.54
2024-01-20T15:01:06.687Z,43.60
2024-01-20T15:03:40.101Z,43.57
2024-01-20T15:06:14.059Z,43.44
2024-01-20T15:08:47.401Z,43.16
2024-01-20T15:11:20.928Z,43.34
2024-01-20T15:13:54.222Z,43.27
2024-01-20T15:16:27.565Z,42.83
2024-01-20T15:19:00.953Z,43.78
2024-01-20T15:21:34.528Z,44.28
2024-01-20T15:24:08.572Z,44.51
2024-01-20T15:26:41.949Z,43.04
2024-01-20T15:29:15.413Z,43.95
2024-01-20T15:31:48.717Z,45.03
2024-01-20T15:34:22.208Z,46.60
2024-01-20T15:36:55.798Z,46.41
2024-01-20T15:39:29.419Z,45.93
2024-01-20T15:42:03.213Z,45.28
2024-01-20T15:44:36.638Z,45.13
2024-01-20T15:47:10.110Z,44.92
2024-01-20T15:49:44.988Z,44.81
2024-01-20T15:52:18.569Z,44.51
2024-01-20T15:54:52.105Z,44.20
2024-01-20T15:57:25.519Z,43.95
2024-01-20T15:59:58.885Z,43.78
2024-01-20T16:02:32.209Z,43.53
2024-01-20T16:05:06.288Z,43.54
2024-01-20T16:07:39.660Z,43.48
2024-01-20T16:10:13.972Z,43.40
2024-01-20T16:12:47.393Z,43.54
2024-01-20T16:15:21.824Z,43.52
2024-01-20T16:17:55.595Z,43.44
2024-01-20T16:20:29.012Z,43.34
2024-01-20T16:23:02.327Z,43.46
2024-01-20T16:25:36.039Z,43.37
2024-01-20T16:28:10.275Z,43.24
2024-01-20T16:30:43.661Z,42.95
2024-01-20T16:33:19.062Z,43.10
2024-01-20T16:35:52.533Z,42.99
2024-01-20T16:38:25.932Z,42.82
2024-01-20T16:41:00.029Z,42.72
2024-01-20T16:43:33.549Z,42.68
2024-01-20T16:46:07.145Z,42.71
2024-01-20T16:48:40.878Z,42.63
2024-01-20T16:51:22.081Z,42.63
2024-01-20T16:53:58.102Z,42.43
2024-01-20T16:56:31.436Z,42.20
2024-01-20T16:59:04.757Z,42.10
2024-01-20T17:01:38.298Z,41.99
2024-01-20T17:04:11.791Z,41.77
2024-01-20T17:06:45.249Z,41.77
2024-01-20T17:09:18.682Z,41.57
2024-01-20T17:11:52.308Z,41.50
2024-01-20T17:14:26.129Z,41.41
2024-01-20T17:16:59.686Z,41.36
2024-01-20T17:19:33.979Z,41.39
2024-01-20T17:22:07.626Z,41.42
2024-01-20T17:24:41.658Z,41.69
2024-01-20T17:27:15.043Z,41.96
2024-01-20T17:29:49.031Z,44.73
2024-01-20T17:32:22.357Z,43.85
2024-01-20T17:34:56.119Z,44.58
2024-01-20T17:37:29.820Z,44.11
2024-01-20T17:40:04.518Z,43.06
2024-01-20T17:42:37.957Z,43.29
2024-01-20T17:45:12.630Z,43.46
2024-01-20T17:47:47.152Z,43.90
2024-01-20T17:50:20.755Z,44.53
2024-01-20T17:52:54.268Z,45.79
2024-01-20T17:55:31.396Z,46.66
2024-01-20T17:58:05.057Z,46.80
2024-01-20T18:00:39.856Z,47.79
2024-01-20T18:03:13.305Z,46.71
2024-01-20T18:05:47.013Z,46.15
2024-01-20T18:08:20.659Z,45.64
2024-01-20T18:10:55.190Z,45.31
2024-01-20T18:13:28.681Z,44.89
2024-01-20T18:16:02.195Z,44.51
2024-01-20T18:18:35.719Z,43.95
2024-01-20T18:21:10.675Z,44.04
2024-01-20T18:23:44.373Z,43.87
2024-01-20T18:26:17.652Z,43.86
2024-01-20T18:28:51.143Z,43.51
2024-01-20T18:31:24.570Z,43.47
2024-01-20T18:33:58.834Z,43.30
2024-01-20T18:36:32.266Z,43.20
2024-01-20T18:39:05.791Z,42.75
2024-01-20T18:41:39.232Z,42.35
2024-01-20T18:44:12.563Z,43.01
2024-01-20T18:47:11.970Z,43.13
2024-01-20T18:49:45.596Z,43.23
2024-01-20T18:52:19.157Z,44.42
2024-01-20T18:54:54.951Z,46.63
2024-01-20T18:57:28.598Z,46.86
2024-01-20T19:00:02.358Z,45.82
2024-01-20T19:02:35.959Z,44.88
2024-01-20T19:05:09.734Z,44.33
2024-01-20T19:07:43.211Z,44.16
2024-01-20T19:10:17.082Z,43.85
2024-01-20T19:12:50.531Z,43.42
2024-01-20T19:15:24.226Z,43.28
2024-01-20T19:17:57.797Z,43.12
2024-01-20T19:20:33.513Z,42.99
2024-01-20T19:23:07.049Z,43.00
2024-01-20T19:25:40.473Z,42.70
2024-01-20T19:28:13.831Z,42.63
2024-01-20T19:30:47.222Z,42.56
2024-01-20T19:33:20.707Z,42.37
2024-01-20T19:35:54.268Z,42.27
2024-01-20T19:38:27.646Z,42.29
2024-01-20T19:41:01.032Z,42.30
2024-01-20T19:43:36.285Z,42.19
2024-01-20T19:46:10.062Z,41.81
2024-01-20T19:48:43.493Z,41.83
2024-01-20T19:51:19.862Z,41.61
2024-01-20T19:53:53.234Z,41.69
2024-01-20T19:56:26.639Z,41.82
2024-01-20T19:58:59.940Z,41.48
2024-01-20T20:01:33.285Z,41.54
2024-01-20T20:04:07.365Z,40.43
2024-01-20T20:06:40.799Z,42.72
2024-01-20T20:09:14.470Z,43.60
2024-01-20T20:11:48.389Z,43.60
2024-01-20T20:14:24.482Z,43.50
2024-01-20T20:16:58.541Z,42.85
2024-01-20T20:19:33.136Z,42.87
2024-01-20T20:22:10.129Z,42.73
2024-01-20T20:24:45.891Z,42.64
2024-01-20T20:27:20.920Z,42.41
2024-01-20T20:29:54.606Z,42.11
2024-01-20T20:32:28.129Z,42.19
2024-01-20T20:35:01.538Z,42.18
2024-01-20T20:37:34.931Z,41.95
2024-01-20T20:40:11.840Z,41.79
2024-01-20T20:42:45.271Z,41.90
2024-01-20T20:45:18.741Z,41.66
2024-01-20T20:47:52.184Z,41.38
2024-01-20T20:50:25.524Z,41.66
2024-01-20T20:52:58.976Z,41.51
2024-01-20T20:55:32.340Z,41.52
2024-01-20T20:58:05.847Z,41.52
2024-01-20T21:00:39.254Z,41.37
2024-01-20T21:03:12.894Z,41.31
2024-01-20T21:05:48.991Z,41.21
2024-01-20T21:08:22.351Z,41.18
2024-01-20T21:10:56.267Z,41.14
2024-01-20T21:13:29.638Z,41.22
2024-01-20T21:16:02.912Z,40.89
2024-01-20T21:18:36.655Z,40.89
2024-01-20T21:21:10.707Z,40.76
2024-01-20T21:23:45.934Z,40.82
2024-01-20T21:26:24.918Z,40.80
2024-01-20T21:28:58.304Z,40.71
2024-01-20T21:31:31.758Z,40.65
2024-01-20T21:34:05.084Z,40.65
2024-01-20T21:36:38.510Z,40.64
2024-01-20T21:39:13.216Z,40.44
2024-01-20T21:41:46.658Z,40.58
2024-01-20T21:44:20.073Z,40.49
2024-01-20T21:46:53.361Z,40.53
2024-01-20T21:49:27.183Z,40.44
2024-01-20T21:52:00.565Z,40.67
2024-01-20T21:54:34.019Z,40.59
2024-01-20T21:57:07.831Z,40.41
2024-01-20T21:59:41.173Z,40.37
2024-01-20T22:02:15.127Z,40.22
2024-01-20T22:04:48.476Z,40.19
2024-01-20T22:07:21.921Z,40.26
2024-01-20T22:09:56.443Z,40.15
2024-01-20T22:12:29.737Z,40.30
2024-01-20T22:15:03.920Z,40.31
2024-01-20T22:17:37.487Z,40.19
2024-01-20T22:20:14.440Z,40.20
2024-01-20T22:22:48.388Z,40.08
2024-01-20T22:25:22.178Z,40.08
2024-01-20T22:27:56.507Z,40.01
2024-01-20T22:30:29.960Z,40.10
2024-01-20T22:33:05.180Z,40.10
2024-01-20T22:35:38.630Z,39.90
2024-01-20T22:38:11.954Z,39.94
2024-01-20T22:40:45.447Z,40.11
2024-01-20T22:43:18.809Z,39.81
2024-01-20T22:45:52.215Z,39.74
2024-01-20T22:48:25.670Z,39.69
2024-01-20T22:50:59.120Z,39.63
2024-01-20T22:53:34.104Z,39.61
2024-01-20T22:56:08.000Z,39.72
2024-01-20T22:58:41.561Z,39.73
2024-01-20T23:01:17.265Z,39.54
2024-01-20T23:03:50.931Z,39.59
2024-01-20T23:06:24.554Z,40.20
2024-01-20T23:08:58.085Z,40.33
2024-01-20T23:11:31.431Z,40.77
2024-01-20T23:14:04.754Z,41.41
2024-01-20T23:16:38.067Z,41.87
2024-01-20T23:19:12.319Z,42.65
2024-01-20T23:21:45.829Z,41.94
2024-01-20T23:24:19.187Z,42.11
2024-01-20T23:26:52.477Z,41.85
2024-01-20T23:29:26.198Z,41.56
2024-01-20T23:31:59.492Z,41.51
2024-01-20T23:34:33.509Z,41.46
2024-01-20T23:37:06.979Z,41.21
2024-01-20T23:39:40.295Z,41.04
2024-01-20T23:42:13.703Z,40.97
2024-01-20T23:44:47.114Z,40.89
2024-01-20T23:47:20.532Z,40.73
2024-01-20T23:49:53.769Z,40.58
2024-01-20T23:52:27.173Z,40.64
2024-01-20T23:55:00.529Z,40.43
2024-01-20T23:57:34.253Z,40.66
